Altus, OK

5:01 AM CST on February 01, 2015 (GMT -0600)
Altus Air Force Base | Change Station
CLOSE
Current Station
Airport
Location: Altus AFB,
Elevation: 1378 ft
Nearby Weather Stations

Elev 1378 ft 34.67 °N, 99.27 °W | Updated 3 minutes ago

Overcast
Overcast
44 °F
Feels Like 39 °F
N
8
Wind Variable Wind from NW

Today
High -- | Low -- °F
--% Chance of Precip.
Yesterday
High -- | Low -- °F
Precip. -- in
7:35 AM 6:06 PM
Waxing Gibbous, 94% visible
Pressure 29.88 in
Visibility 9.0 miles
Clouds Few 400 ft
Mostly Cloudy 2600 ft
Mostly Cloudy 4100 ft
Overcast 5500 ft
Windchill 39 °F
Dew Point 44 °F
Humidity 100%
Rainfall 0.01 in
Snow Depth Not available.
UV 0 out of 12
Pollen 5.00 out of 12
Air Quality Not available.
Flu Activity Not available.
METAR KLTS 011058Z AUTO 31007KT 9SM R35L/5500FT FEW004 BKN026 BKN041 OVC055 07/07 A2987 RMK AO2 CIG 026V037 BKN026 V SCT SLP117 T00660066 $

More Conditions Fewer Conditions

Pressure 29.88 in
Visibility 9.0 miles
Clouds Few 400 ft
Mostly Cloudy 2600 ft
Mostly Cloudy 4100 ft
Overcast 5500 ft
Windchill 39 °F
Dew Point 44 °F
Humidity 100%
Rainfall 0.01 in
Snow Depth Not available.
UV 0 out of 12
Pollen 5.00 out of 12
Air Quality Not available.
Flu Activity Not available.
METAR KLTS 011058Z AUTO 31007KT 9SM R35L/5500FT FEW004 BKN026 BKN041 OVC055 07/07 A2987 RMK AO2 CIG 026V037 BKN026 V SCT SLP117 T00660066 $

More Conditions Fewer Conditions

10-Day Weather Forecast

Almanac

Astronomy

Feb. 01, 2015 Rise Set
Actual Time
Civil Twilight
Nautical Twilight
Astronomical Twilight
Moon
Length of Visible Light
Length of Day
Tomorrow will be .
, % of the Moon is Illuminated

Today's Extremes

State Highs State Lows

Community

WunderPhotos

Upload Photos

1,792,345 photos uploaded!

WunderBlogs® & News

Nearby

Air Quality

  Air Quality AQ Index Pollutant
Not available.

Snow Depth

Station Depth Elevation

Earthquake Activity

City Distance Mag. Time & Date
Minimum magnitude displayed is 2.5.

Coastal Water Temperatures

Place Temperature

Nearby Weather Stations